createdAt,value
2019-04-26T00:03:49.847Z,21.4
2019-04-26T00:08:37.703Z,20.4
2019-04-26T00:13:25.557Z,19.5
2019-04-26T00:18:12.899Z,19
2019-04-26T00:22:59.756Z,18.5
2019-04-26T00:27:00.437Z,19.4
2019-04-26T00:27:16.923Z,19.8
2019-04-26T00:27:32.580Z,20.1
2019-04-26T00:27:48.217Z,20.4
2019-04-26T00:28:03.876Z,20.6
2019-04-26T00:28:19.459Z,21
2019-04-26T00:28:35.039Z,21.3
2019-04-26T00:28:50.616Z,21.6
2019-04-26T00:29:53.452Z,23.1
2019-04-26T00:34:40.704Z,23.8
2019-04-26T00:39:27.763Z,22.4
2019-04-26T00:44:16.551Z,21.1
2019-04-26T00:49:05.937Z,20.1
2019-04-26T00:53:53.981Z,19.3
2019-04-26T00:58:41.399Z,18.6
2019-04-26T01:02:42.037Z,20.8
2019-04-26T01:02:57.617Z,21.1
2019-04-26T01:03:13.179Z,21.3
2019-04-26T01:04:17.035Z,22.4
2019-04-26T01:09:04.511Z,23.5
2019-04-26T01:13:52.482Z,22.2
2019-04-26T01:18:39.711Z,20.9
2019-04-26T01:23:27.263Z,19.8
2019-04-26T01:28:14.790Z,18.9
2019-04-26T01:33:02.397Z,18.3
2019-04-26T01:37:03.357Z,19.2
2019-04-26T01:37:20.347Z,19.5
2019-04-26T01:37:36.127Z,19.8
2019-04-26T01:37:51.678Z,20.1
2019-04-26T01:38:07.260Z,20.5
2019-04-26T01:38:23.682Z,20.8
2019-04-26T01:38:39.336Z,21.1
2019-04-26T01:39:41.316Z,22.6
2019-04-26T01:44:28.794Z,23.3
2019-04-26T01:49:16.241Z,22
2019-04-26T01:54:03.416Z,20.7
2019-04-26T01:58:51.312Z,19.6
2019-04-26T02:03:38.372Z,18.8
2019-04-26T02:08:26.258Z,18.2
2019-04-26T02:12:27.349Z,18.8
2019-04-26T02:12:43.171Z,19
2019-04-26T02:12:59.213Z,19.3
2019-04-26T02:13:14.790Z,19.6
2019-04-26T02:13:30.989Z,19.9
2019-04-26T02:13:46.605Z,20.2
2019-04-26T02:14:07.428Z,20.5
2019-04-26T02:14:23.848Z,21.1
2019-04-26T02:14:40.718Z,21.2
2019-04-26T02:14:56.285Z,21.8
2019-04-26T02:16:01.743Z,22.6
2019-04-26T02:20:49.493Z,23.2
2019-04-26T02:25:37.137Z,21.7
2019-04-26T02:30:26.399Z,20.3
2019-04-26T02:35:14.740Z,19.2
2019-04-26T02:40:07.167Z,18.3
2019-04-26T02:44:07.811Z,17.9
2019-04-26T02:44:23.404Z,17.8
2019-04-26T02:44:38.972Z,17.8
2019-04-26T02:44:54.537Z,17.8
2019-04-26T02:45:10.123Z,17.9
2019-04-26T02:45:28.348Z,18
2019-04-26T02:45:44.508Z,18.3
2019-04-26T02:46:01.115Z,18.3
2019-04-26T02:46:17.497Z,18.7
2019-04-26T02:46:34.402Z,19.1
2019-04-26T02:46:51.370Z,19.3
2019-04-26T02:47:06.930Z,19.6
2019-04-26T02:47:22.493Z,19.9
2019-04-26T02:47:39.146Z,20.2
2019-04-26T02:47:54.859Z,20.5
2019-04-26T02:48:10.413Z,20.8
2019-04-26T02:48:28.314Z,20.8
2019-04-26T02:49:31.277Z,22.2
2019-04-26T02:54:19.573Z,22.7
2019-04-26T02:59:06.400Z,21.1
2019-04-26T03:03:53.802Z,19.8
2019-04-26T03:08:40.582Z,18.8
2019-04-26T03:13:27.979Z,17.9
2019-04-26T03:17:30.472Z,20
2019-04-26T03:17:48.411Z,20.9
2019-04-26T03:18:03.998Z,20.9
2019-04-26T03:19:05.744Z,22.2
2019-04-26T03:23:57.594Z,22.5
2019-04-26T03:28:46.093Z,21
2019-04-26T03:33:38.182Z,19.6
2019-04-26T03:38:30.340Z,18.5
2019-04-26T03:43:17.490Z,17.7
2019-04-26T03:47:18.153Z,19.9
2019-04-26T03:47:34.250Z,20.2
2019-04-26T03:47:51.901Z,20.4
2019-04-26T03:48:07.550Z,20.8
2019-04-26T03:49:09.381Z,22.2
2019-04-26T03:53:56.767Z,22.6
2019-04-26T03:58:45.319Z,21.1
2019-04-26T04:03:32.230Z,19.7
2019-04-26T04:08:20.913Z,18.6
2019-04-26T04:13:09.437Z,17.7
2019-04-26T04:17:10.097Z,18.3
2019-04-26T04:17:25.658Z,18.6
2019-04-26T04:17:43.200Z,18.9
2019-04-26T04:18:01.437Z,19.2
2019-04-26T04:18:17.986Z,19.6
2019-04-26T04:18:33.547Z,20.2
2019-04-26T04:18:49.133Z,20.2
2019-04-26T04:19:04.710Z,20.5
2019-04-26T04:19:20.652Z,20.8
2019-04-26T04:20:24.277Z,21.9
2019-04-26T04:25:11.295Z,22.5
2019-04-26T04:29:58.070Z,21
2019-04-26T04:34:46.019Z,19.6
2019-04-26T04:39:34.363Z,18.5
2019-04-26T04:44:21.600Z,17.8
2019-04-26T04:48:22.221Z,20.5
2019-04-26T04:48:37.851Z,20.8
2019-04-26T04:48:53.778Z,21.1
2019-04-26T04:49:56.318Z,22.2
2019-04-26T04:54:44.568Z,22.9
2019-04-26T04:59:33.079Z,21.6
2019-04-26T05:04:21.855Z,20.4
2019-04-26T05:09:09.074Z,19.4
2019-04-26T05:13:56.124Z,18.8
2019-04-26T05:18:46.536Z,18.4
2019-04-26T05:23:33.777Z,18.2
2019-04-26T05:27:34.411Z,19.3
2019-04-26T05:27:50.888Z,19.5
2019-04-26T05:28:06.478Z,19.8
2019-04-26T05:28:22.694Z,20.5
2019-04-26T05:28:38.713Z,20.5
2019-04-26T05:28:55.823Z,20.8
2019-04-26T05:29:11.493Z,21.1
2019-04-26T05:29:27.087Z,21.4
2019-04-26T05:30:29.417Z,22.5
2019-04-26T05:35:16.340Z,23.5
2019-04-26T05:40:03.490Z,22.4
2019-04-26T05:44:51.891Z,21.2
2019-04-26T05:49:39.672Z,20.3
2019-04-26T05:54:26.921Z,19.8
2019-04-26T05:59:13.628Z,19.2
2019-04-26T06:04:00.951Z,18.9
2019-04-26T06:08:48.057Z,18.6
2019-04-26T06:13:34.857Z,18.5
2019-04-26T06:18:22.549Z,18.4
2019-04-26T06:23:09.313Z,18.3
2019-04-26T06:27:13.950Z,19.7
2019-04-26T06:27:29.926Z,19.7
2019-04-26T06:27:45.438Z,20.1
2019-04-26T06:28:01.110Z,20.4
2019-04-26T06:28:16.833Z,20.7
2019-04-26T06:28:32.379Z,21
2019-04-26T06:28:47.935Z,21.3
2019-04-26T06:29:03.442Z,21.5
2019-04-26T06:30:07.022Z,22.6
2019-04-26T06:34:54.908Z,23.8
2019-04-26T06:39:42.340Z,22.8
2019-04-26T06:44:30.251Z,21.8
2019-04-26T06:49:18.819Z,21
2019-04-26T06:54:06.387Z,20.5
2019-04-26T06:58:53.298Z,20.2
2019-04-26T07:03:42.499Z,20
2019-04-26T07:08:29.716Z,19.7
2019-04-26T07:13:16.807Z,19.7
2019-04-26T07:18:04.388Z,19.8
2019-04-26T07:22:51.460Z,19.9
2019-04-26T07:27:39.027Z,20.1
2019-04-26T07:32:26.143Z,20.2
2019-04-26T07:37:13.319Z,20.4
2019-04-26T07:42:03.162Z,20.6
2019-04-26T07:46:51.245Z,20.8
2019-04-26T07:51:38.950Z,21
2019-04-26T07:56:26.155Z,21.3
2019-04-26T08:01:14.087Z,21.5
2019-04-26T08:06:02.988Z,21.7
2019-04-26T08:10:51.222Z,21.9
2019-04-26T08:15:38.930Z,22.2
2019-04-26T08:20:28.180Z,22.5
2019-04-26T08:25:18.843Z,22.8
2019-04-26T08:30:10.123Z,23
2019-04-26T08:35:02.301Z,23.3
2019-04-26T08:39:53.537Z,23.5
2019-04-26T08:44:40.846Z,23.7
2019-04-26T08:49:29.525Z,24
2019-04-26T08:54:17.068Z,24.2
2019-04-26T08:59:04.333Z,24.5
2019-04-26T09:03:51.671Z,24.8
2019-04-26T09:08:43.351Z,25
2019-04-26T09:13:31.822Z,25.4
2019-04-26T09:18:19.844Z,25.7
2019-04-26T09:23:06.990Z,26.1
2019-04-26T09:27:55.027Z,26.4
2019-04-26T09:32:42.405Z,26.8
2019-04-26T09:37:29.254Z,27.1
2019-04-26T09:42:16.418Z,27.3
2019-04-26T09:47:03.556Z,27.6
2019-04-26T09:51:51.217Z,27.7
2019-04-26T09:56:38.485Z,27.9
2019-04-26T10:01:26.024Z,28.2
2019-04-26T10:06:13.171Z,28.4
2019-04-26T10:11:05.650Z,28.7
2019-04-26T10:15:58.212Z,29
2019-04-26T10:20:49.333Z,29.2
2019-04-26T10:25:36.974Z,29.5
2019-04-26T10:30:24.423Z,29.6
2019-04-26T10:35:12.670Z,29.9
2019-04-26T10:39:59.722Z,30.1
2019-04-26T10:44:46.990Z,30.3
2019-04-26T10:49:35.119Z,30.7
2019-04-26T10:54:24.108Z,31
2019-04-26T10:59:11.350Z,31.5
2019-04-26T11:03:58.989Z,31.7
2019-04-26T11:08:46.079Z,32
2019-04-26T11:13:33.204Z,32.1
2019-04-26T11:18:27.393Z,32.4
2019-04-26T11:23:16.983Z,32.6
2019-04-26T11:28:04.247Z,32.9
2019-04-26T11:32:52.043Z,32.9
2019-04-26T11:37:39.050Z,33
2019-04-26T11:42:26.177Z,33
2019-04-26T11:47:14.039Z,33
2019-04-26T11:52:02.778Z,33.1
2019-04-26T11:56:51.703Z,33.5
2019-04-26T12:01:41.995Z,33.8
2019-04-26T12:06:29.496Z,34.2
2019-04-26T12:11:18.611Z,34.5
2019-04-26T12:16:09.838Z,34.4
2019-04-26T12:21:01.016Z,34.7
2019-04-26T12:25:50.584Z,35.1
2019-04-26T12:30:38.262Z,35.2
2019-04-26T12:35:25.116Z,35.3
2019-04-26T12:40:12.357Z,35.5
2019-04-26T12:45:00.044Z,35.8
2019-04-26T12:49:46.771Z,36
2019-04-26T12:54:39.001Z,35.6
2019-04-26T12:59:43.135Z,35.4
2019-04-26T13:04:36.265Z,35.1
2019-04-26T13:09:26.599Z,34.5
2019-04-26T13:14:16.199Z,34.4
2019-04-26T13:19:03.293Z,34.7
2019-04-26T13:23:51.785Z,35.2
2019-04-26T13:28:39.443Z,35.8
2019-04-26T13:33:27.495Z,35.8
2019-04-26T13:38:16.024Z,35.6
2019-04-26T13:43:08.023Z,36.1
2019-04-26T13:47:54.849Z,36.8
2019-04-26T13:52:42.088Z,37.3
2019-04-26T13:57:29.542Z,37.7
2019-04-26T14:02:17.641Z,37.9
2019-04-26T14:07:04.858Z,37.9
2019-04-26T14:11:52.129Z,37.8
2019-04-26T14:16:40.741Z,37.6
2019-04-26T14:21:29.195Z,37.4
2019-04-26T14:26:21.038Z,37.4
2019-04-26T14:31:12.187Z,37.7
2019-04-26T14:36:03.252Z,38
2019-04-26T14:41:03.268Z,37.7
2019-04-26T14:45:56.092Z,37.1
2019-04-26T14:50:45.220Z,36.5
2019-04-26T14:55:33.870Z,35.8
2019-04-26T15:00:21.463Z,35.1
2019-04-26T15:05:09.553Z,34.3
2019-04-26T15:09:58.291Z,33.9
2019-04-26T15:14:49.163Z,33.4
2019-04-26T15:19:36.269Z,33
2019-04-26T15:24:25.898Z,32.8
2019-04-26T15:29:14.921Z,32.8
2019-04-26T15:34:03.388Z,32.7
2019-04-26T15:38:52.836Z,32.7
2019-04-26T15:43:40.590Z,32.8
2019-04-26T15:48:27.801Z,33
2019-04-26T15:53:15.255Z,33.1
2019-04-26T15:58:09.279Z,33.2
2019-04-26T16:02:58.576Z,33
2019-04-26T16:07:50.553Z,32.5
2019-04-26T16:12:37.438Z,32
2019-04-26T16:17:26.377Z,31.5
2019-04-26T16:22:13.597Z,31
2019-04-26T16:27:00.694Z,30.6
2019-04-26T16:31:49.413Z,30.3
2019-04-26T16:36:43.940Z,30
2019-04-26T16:41:37.677Z,29.6
2019-04-26T16:46:27.880Z,29.4
2019-04-26T16:51:15.213Z,29.1
2019-04-26T16:56:03.716Z,28.8
2019-04-26T17:00:57.139Z,28.6
2019-04-26T17:05:48.342Z,28.4
2019-04-26T17:10:38.854Z,28.1
2019-04-26T17:15:26.058Z,27.9
2019-04-26T17:20:15.271Z,27.7
2019-04-26T17:25:03.760Z,27.5
2019-04-26T17:29:52.597Z,27.3
2019-04-26T17:34:40.648Z,27
2019-04-26T17:39:30.304Z,26.8
2019-04-26T17:44:20.647Z,26.6
2019-04-26T17:49:13.143Z,26.5
2019-04-26T17:54:21.125Z,26.3
2019-04-26T17:59:33.372Z,26.1
2019-04-26T18:04:32.286Z,25.9
2019-04-26T18:09:40.505Z,25.8
2019-04-26T18:14:32.135Z,25.6
2019-04-26T18:19:19.443Z,25.3
2019-04-26T18:24:06.782Z,25.2
2019-04-26T18:28:55.268Z,25
2019-04-26T18:33:44.915Z,25
2019-04-26T18:38:32.243Z,24.8
2019-04-26T18:43:23.936Z,24.7
2019-04-26T18:48:14.754Z,24.6
2019-04-26T18:53:03.239Z,24.5
2019-04-26T18:57:54.749Z,24.4
2019-04-26T19:02:48.410Z,24.2
2019-04-26T19:07:40.424Z,24.1
2019-04-26T19:12:27.609Z,24
2019-04-26T19:17:14.474Z,23.9
2019-04-26T19:22:03.269Z,23.9
2019-04-26T19:26:51.450Z,23.8
2019-04-26T19:31:38.641Z,23.7
2019-04-26T19:36:29.108Z,23.6
2019-04-26T19:41:17.379Z,23.5
2019-04-26T19:46:08.086Z,23.5
2019-04-26T19:50:55.332Z,23.3
2019-04-26T19:55:47.357Z,23.1
2019-04-26T20:00:38.526Z,23
2019-04-26T20:05:31.826Z,22.8
2019-04-26T20:10:19.510Z,22.8
2019-04-26T20:15:06.590Z,22.7
2019-04-26T20:19:54.492Z,22.6
2019-04-26T20:24:43.011Z,22.5
2019-04-26T20:29:30.176Z,22.5
2019-04-26T20:34:18.674Z,22.4
2019-04-26T20:39:06.445Z,22.4
2019-04-26T20:44:05.071Z,22.3
2019-04-26T20:48:56.498Z,22.3
2019-04-26T20:53:44.369Z,22.3
2019-04-26T20:58:31.377Z,22.2
2019-04-26T21:03:23.823Z,22.2
2019-04-26T21:08:14.873Z,22.2
2019-04-26T21:13:02.627Z,22.1
2019-04-26T21:17:51.876Z,22.1
2019-04-26T21:22:39.466Z,22
2019-04-26T21:27:29.774Z,22
2019-04-26T21:32:20.574Z,21.9
2019-04-26T21:37:11.321Z,21.8
2019-04-26T21:42:03.540Z,21.8
2019-04-26T21:46:56.259Z,21.7
2019-04-26T21:51:51.297Z,21.7
2019-04-26T21:56:42.741Z,21.6
2019-04-26T22:01:35.993Z,21.5
2019-04-26T22:06:26.891Z,21.5
2019-04-26T22:11:19.980Z,21.4
2019-04-26T22:16:28.494Z,21.4
2019-04-26T22:21:21.693Z,21.3
2019-04-26T22:26:16.593Z,21.2
2019-04-26T22:31:07.370Z,21
2019-04-26T22:35:58.422Z,20.9
2019-04-26T22:40:48.648Z,20.8
2019-04-26T22:45:43.739Z,20.6
2019-04-26T22:50:33.961Z,20.6
2019-04-26T22:55:24.071Z,20.5
2019-04-26T23:00:15.003Z,20.4
2019-04-26T23:05:06.020Z,20.3
2019-04-26T23:09:55.358Z,20.2
2019-04-26T23:14:43.934Z,20.1
2019-04-26T23:19:33.440Z,20
2019-04-26T23:24:20.466Z,19.8
2019-04-26T23:29:17.576Z,19.7
2019-04-26T23:34:05.798Z,19.7
2019-04-26T23:38:53.149Z,19.6
2019-04-26T23:43:40.878Z,19.5
2019-04-26T23:48:28.825Z,19.3
2019-04-26T23:53:20.168Z,19.1
2019-04-26T23:58:10.625Z,20.4
